Time;durP1;ratioP1;P1;durP2;ratioP2;P2;SDS_P1;SDS_P2;PMS_P1;PMS_P2;Temp;Humidity;BMP_temperature;BMP_pressure;BME280_temperature;BME280_humidity;BME280_pressure;Samples;Min_cycle;Max_cycle;Signal;HPM_P1;HPM_P2
2023/10/09 00:01:13;;;;;;;26.80;13.82;;;;;;;13.68;100.00;101968.63;5051979;28;20032;-73
2023/10/09 00:03:41;;;;;;;24.77;13.05;;;;;;;13.67;100.00;101964.25;5051793;28;20037;-74
2023/10/09 00:06:07;;;;;;;24.55;14.07;;;;;;;13.65;100.00;101960.97;5051752;28;20091;-73
2023/10/09 00:08:34;;;;;;;29.83;14.57;;;;;;;13.67;100.00;101968.81;5051586;28;20028;-73
2023/10/09 00:11:16;;;;;;;27.88;15.77;;;;;;;13.58;100.00;101958.19;5034217;28;20072;-73
2023/10/09 00:13:49;;;;;;;27.15;14.90;;;;;;;13.61;100.00;101951.63;5051728;28;20027;-73
2023/10/09 00:17:17;;;;;;;23.63;12.90;;;;;;;13.58;100.00;101949.34;5051527;28;20036;-73
2023/10/09 00:19:26;;;;;;;27.80;14.98;;;;;;;13.63;100.00;101951.47;5042994;28;20112;-73
2023/10/09 00:21:55;;;;;;;25.75;14.77;;;;;;;13.64;100.00;101947.75;5051345;28;20041;-74
2023/10/09 00:24:23;;;;;;;26.08;13.85;;;;;;;13.62;100.00;101934.50;5051317;28;20488;-73
2023/10/09 00:26:55;;;;;;;27.65;13.80;;;;;;;13.66;100.00;101927.78;5017448;28;20086;-73
2023/10/09 00:29:27;;;;;;;25.02;14.60;;;;;;;13.67;100.00;101929.41;5051249;28;20029;-73
2023/10/09 00:32:13;;;;;;;27.90;14.68;;;;;;;13.69;100.00;101926.56;5066558;28;20029;-73
2023/10/09 00:34:39;;;;;;;27.02;15.35;;;;;;;13.71;100.00;101927.19;5070104;28;20028;-73
2023/10/09 00:37:10;;;;;;;27.08;13.95;;;;;;;13.74;100.00;101926.81;5070377;28;20034;-73
2023/10/09 00:42:02;;;;;;;23.00;14.30;;;;;;;13.77;100.00;101929.09;5070348;28;20047;-73
2023/10/09 00:44:38;;;;;;;27.10;14.15;;;;;;;13.79;100.00;101922.53;5070297;28;20055;-73
2023/10/09 00:47:20;;;;;;;24.73;13.80;;;;;;;13.81;100.00;101906.28;5070015;28;20037;-73
2023/10/09 00:49:49;;;;;;;24.98;13.60;;;;;;;13.84;100.00;101921.16;5070157;28;20032;-73
2023/10/09 00:52:23;;;;;;;24.63;14.50;;;;;;;13.88;100.00;101920.53;5069685;28;20044;-73
2023/10/09 00:54:51;;;;;;;26.15;14.00;;;;;;;13.92;100.00;101929.06;5069937;28;20075;-73
2023/10/09 00:57:24;;;;;;;26.02;14.05;;;;;;;13.93;100.00;101928.03;5069383;28;20029;-74
2023/10/09 00:59:59;;;;;;;27.65;13.50;;;;;;;13.99;100.00;101938.81;5051814;28;20028;-73
2023/10/09 01:02:35;;;;;;;26.50;14.75;;;;;;;14.02;100.00;101924.19;5069884;28;20063;-73
2023/10/09 01:05:11;;;;;;;25.48;14.10;;;;;;;14.01;100.00;101917.97;5069647;28;20059;-74
2023/10/09 01:07:40;;;;;;;24.83;14.38;;;;;;;14.01;100.00;101915.28;5069736;28;20231;-73
2023/10/09 01:10:09;;;;;;;26.02;13.68;;;;;;;14.06;100.00;101933.50;5069676;28;20467;-73
2023/10/09 01:12:42;;;;;;;26.25;14.43;;;;;;;14.03;100.00;101926.66;5069586;28;20043;-74
2023/10/09 01:15:07;;;;;;;23.88;14.73;;;;;;;14.07;100.00;101926.28;5069471;28;20039;-73
2023/10/09 01:17:38;;;;;;;23.63;14.25;;;;;;;14.05;100.00;101918.44;5069425;28;20456;-74
2023/10/09 01:20:05;;;;;;;30.65;13.85;;;;;;;14.07;100.00;101916.41;5069534;28;20021;-73
2023/10/09 01:22:30;;;;;;;24.15;13.70;;;;;;;14.07;100.00;101927.13;5069369;28;20032;-73
2023/10/09 01:24:56;;;;;;;23.35;13.57;;;;;;;14.10;100.00;101923.25;5069529;28;20110;-73
2023/10/09 01:27:24;;;;;;;22.30;13.13;;;;;;;14.09;100.00;101921.56;5069378;28;20110;-74
2023/10/09 01:29:51;;;;;;;27.38;14.07;;;;;;;14.06;100.00;101920.09;5069190;28;20024;-74
2023/10/09 01:32:18;;;;;;;22.63;14.50;;;;;;;14.10;100.00;101924.06;5051820;28;20035;-74
2023/10/09 01:34:45;;;;;;;27.67;15.07;;;;;;;14.12;100.00;101923.84;5059003;28;20079;-74
2023/10/09 01:37:22;;;;;;;27.58;15.35;;;;;;;14.14;100.00;101919.94;5050275;28;20507;-73
2023/10/09 01:39:52;;;;;;;27.58;16.83;;;;;;;14.14;100.00;101925.31;5050087;28;20126;-74
2023/10/09 01:42:34;;;;;;;23.65;13.32;;;;;;;14.16;100.00;101927.81;5049914;28;20056;-73
2023/10/09 01:45:09;;;;;;;;;;;;;;;14.20;100.00;101921.88;5050269;28;20085;-74
2023/10/09 01:47:37;;;;;;;28.13;14.93;;;;;;;14.19;100.00;101919.38;5049933;28;20456;-74
2023/10/09 01:50:19;;;;;;;24.27;15.63;;;;;;;14.16;100.00;101909.84;5032147;28;20037;-74
2023/10/09 01:52:45;;;;;;;26.75;15.77;;;;;;;14.21;100.00;101911.97;5049731;28;20092;-73
2023/10/09 01:57:56;;;;;;;26.90;14.93;;;;;;;14.27;100.00;101910.34;5069080;28;20474;-73
2023/10/09 02:00:29;;;;;;;26.05;14.63;;;;;;;14.28;100.00;101907.47;5069008;28;20078;-73
2023/10/09 02:02:54;;;;;;;24.55;13.98;;;;;;;14.33;100.00;101913.09;5068777;28;20036;-73
2023/10/09 02:07:51;;;;;;;25.02;14.50;;;;;;;14.34;100.00;101898.66;5069097;28;20072;-73
2023/10/09 02:13:06;;;;;;;25.27;14.52;;;;;;;14.41;100.00;101917.50;5033922;28;20037;-73
2023/10/09 02:15:51;;;;;;;23.95;13.13;;;;;;;14.43;100.00;101915.41;5049564;28;20159;-73
2023/10/09 02:23:49;;;;;;;20.55;12.60;;;;;;;14.46;100.00;101896.22;5049516;28;20090;-73
2023/10/09 02:26:26;;;;;;;22.60;13.70;;;;;;;14.49;100.00;101895.88;5049442;28;20033;-73
2023/10/09 02:28:58;;;;;;;31.48;14.13;;;;;;;14.51;100.00;101892.97;5049420;28;20037;-73
2023/10/09 02:31:27;;;;;;;21.90;13.63;;;;;;;14.52;100.00;101900.84;5049590;28;20017;-74
2023/10/09 02:33:55;;;;;;;25.40;14.57;;;;;;;14.51;100.00;101892.97;5049466;28;20028;-73
2023/10/09 02:36:21;;;;;;;24.83;13.82;;;;;;;14.54;100.00;101888.09;5049425;28;20392;-73
2023/10/09 02:38:48;;;;;;;28.38;15.43;;;;;;;14.51;100.00;101875.00;5049388;28;20490;-73
2023/10/09 02:43:44;;;;;;;25.02;14.45;;;;;;;14.56;100.00;101877.94;5049717;28;20033;-73
2023/10/09 02:46:21;;;;;;;24.13;13.52;;;;;;;14.56;100.00;101882.50;5059653;28;20133;-73
2023/10/09 02:48:53;;;;;;;23.45;12.85;;;;;;;14.58;100.00;101869.72;5068611;28;20093;-74
2023/10/09 02:53:57;;;;;;;23.83;14.30;;;;;;;14.50;100.00;101849.19;5068116;28;20377;-74
2023/10/09 02:56:43;;;;;;;22.27;12.75;;;;;;;14.57;100.00;101870.75;5068571;28;20051;-74
2023/10/09 02:59:08;;;;;;;26.00;14.95;;;;;;;14.55;100.00;101867.44;5068599;28;20384;-73
2023/10/09 03:01:39;;;;;;;22.85;14.27;;;;;;;14.57;100.00;101866.19;5065778;28;20028;-73
2023/10/09 03:04:10;;;;;;;23.70;13.57;;;;;;;14.57;100.00;101866.19;5049064;28;20068;-73
2023/10/09 03:06:49;;;;;;;25.17;13.40;;;;;;;14.57;100.00;101865.38;5031198;28;20469;-73
2023/10/09 03:09:18;;;;;;;21.02;12.70;;;;;;;14.54;100.00;101860.38;5049165;28;20044;-73
2023/10/09 03:11:53;;;;;;;20.77;12.52;;;;;;;14.56;100.00;101874.44;5049075;28;20025;-74
2023/10/09 03:14:24;;;;;;;24.48;13.75;;;;;;;14.56;100.00;101869.06;5049189;28;20067;-73
2023/10/09 03:16:50;;;;;;;;;;;;;;;14.57;100.00;101863.53;5049587;28;20033;-73
2023/10/09 03:19:15;;;;;;;22.00;13.57;;;;;;;14.56;100.00;101859.16;5049159;28;19916;-73
2023/10/09 03:21:40;;;;;;;20.67;11.90;;;;;;;14.55;100.00;101849.47;5030395;28;20777;-73
2023/10/09 03:24:08;;;;;;;24.23;12.93;;;;;;;14.55;100.00;101846.78;5052536;28;20563;-74
2023/10/09 03:26:34;;;;;;;24.00;13.85;;;;;;;14.51;100.00;101845.47;5034890;28;20040;-73
2023/10/09 03:29:06;;;;;;;24.33;12.98;;;;;;;14.54;100.00;101849.63;5052575;28;20029;-73
2023/10/09 03:31:34;;;;;;;26.00;14.80;;;;;;;14.55;100.00;101846.78;5052618;28;20029;-73
2023/10/09 03:34:00;;;;;;;24.88;13.48;;;;;;;14.56;100.00;101848.41;5052459;28;20028;-73
2023/10/09 03:36:30;;;;;;;27.13;13.68;;;;;;;14.55;100.00;101849.47;5052413;28;20051;-73
2023/10/09 03:38:57;;;;;;;24.95;14.43;;;;;;;14.57;100.00;101838.53;5034231;28;20036;-73
2023/10/09 03:41:29;;;;;;;22.17;13.85;;;;;;;14.53;100.00;101823.84;5052196;28;20091;-73
2023/10/09 03:43:55;;;;;;;23.67;13.25;;;;;;;14.55;100.00;101832.53;5052030;28;20396;-73
2023/10/09 03:46:22;;;;;;;24.90;14.82;;;;;;;14.54;100.00;101830.84;5051909;28;20037;-74
2023/10/09 03:48:57;;;;;;;22.58;12.77;;;;;;;14.53;100.00;101824.66;5071147;28;20021;-73
2023/10/09 03:51:23;;;;;;;23.00;13.52;;;;;;;14.48;100.00;101827.06;5071295;28;20064;-73
2023/10/09 03:53:50;;;;;;;25.02;13.63;;;;;;;14.54;100.00;101842.44;5070752;28;20080;-73
2023/10/09 03:56:17;;;;;;;20.90;12.93;;;;;;;14.55;100.00;101841.41;5071051;28;20041;-73
2023/10/09 03:58:44;;;;;;;21.88;13.45;;;;;;;14.55;100.00;101845.94;5071089;28;20025;-73
2023/10/09 04:01:22;;;;;;;20.58;11.45;;;;;;;14.55;100.00;101838.72;5051695;28;20029;-74
2023/10/09 04:03:48;;;;;;;24.70;14.18;;;;;;;14.55;100.00;101824.47;5051604;28;20104;-73
2023/10/09 04:06:13;;;;;;;21.73;12.50;;;;;;;14.55;100.00;101827.16;5051709;28;20079;-73
2023/10/09 04:08:46;;;;;;;22.38;13.18;;;;;;;14.50;100.00;101819.66;5051709;28;20094;-73
2023/10/09 04:11:16;;;;;;;23.88;12.77;;;;;;;14.52;100.00;101828.34;5051767;28;20028;-73
2023/10/09 04:13:45;;;;;;;24.55;14.43;;;;;;;14.54;100.00;101822.78;5051515;28;20115;-73
2023/10/09 04:16:33;;;;;;;25.23;13.07;;;;;;;14.52;100.00;101814.94;5051543;28;20033;-73
2023/10/09 04:18:57;;;;;;;23.52;13.43;;;;;;;14.52;100.00;101803.38;5051355;28;20045;-73
2023/10/09 04:21:36;;;;;;;19.92;11.93;;;;;;;14.54;100.00;101809.38;5051518;28;20115;-74
2023/10/09 04:26:44;;;;;;;22.60;13.55;;;;;;;14.53;100.00;101815.78;5051167;28;20171;-73
2023/10/09 04:29:10;;;;;;;21.60;13.20;;;;;;;14.56;100.00;101818.06;5051295;28;20024;-73
2023/10/09 04:31:37;;;;;;;22.90;13.93;;;;;;;14.53;100.00;101807.72;5065038;28;20043;-73
2023/10/09 04:34:28;;;;;;;20.65;12.48;;;;;;;14.56;100.00;101820.75;5052279;28;20024;-73
2023/10/09 04:36:51;;;;;;;22.52;14.27;;;;;;;14.57;100.00;101828.63;5069789;28;20040;-73
2023/10/09 04:44:39;;;;;;;24.20;14.60;;;;;;;14.59;100.00;101845.34;5051188;28;20052;-72
2023/10/09 04:52:45;;;;;;;23.52;14.70;;;;;;;14.62;100.00;101863.75;5050653;28;20116;-73
2023/10/09 04:55:14;;;;;;;22.48;13.98;;;;;;;14.65;100.00;101865.22;5050636;28;20498;-74
2023/10/09 05:03:07;;;;;;;19.55;11.82;;;;;;;14.65;100.00;101857.97;5050598;28;20044;-73
2023/10/09 05:08:19;;;;;;;23.98;13.23;;;;;;;14.69;100.00;101867.28;5050722;28;20041;-73
2023/10/09 05:16:33;;;;;;;24.00;13.85;;;;;;;14.71;100.00;101850.16;5050234;28;20090;-73
2023/10/09 05:19:16;;;;;;;25.65;14.23;;;;;;;14.68;100.00;101843.31;5049719;28;20124;-73
2023/10/09 05:24:16;;;;;;;22.88;12.93;;;;;;;14.69;100.00;101853.84;5069088;28;20036;-73
2023/10/09 05:35:04;;;;;;;22.55;12.48;;;;;;;14.66;100.00;101878.41;5058904;28;20065;-73
2023/10/09 05:37:32;;;;;;;27.80;13.90;;;;;;;14.64;100.00;101868.91;5049863;28;20037;-73
2023/10/09 05:42:42;;;;;;;26.55;15.15;;;;;;;14.69;100.00;101883.38;5049721;28;20075;-73
2023/10/09 05:50:34;;;;;;;22.55;12.88;;;;;;;14.68;100.00;101879.06;5064179;28;20901;-73
2023/10/09 05:53:06;;;;;;;23.33;14.02;;;;;;;14.65;100.00;101878.63;5049707;28;20052;-73
2023/10/09 06:03:54;;;;;;;24.75;15.15;;;;;;;14.67;100.00;101912.31;5049103;28;20044;-73
2023/10/09 06:06:32;;;;;;;25.75;13.13;;;;;;;14.66;100.00;101915.19;5049246;28;20053;-73
2023/10/09 06:11:49;;;;;;;24.73;14.15;;;;;;;14.71;100.00;101906.56;5049282;28;20116;-73
2023/10/09 06:14:57;;;;;;;23.75;14.02;;;;;;;14.71;100.00;101895.81;5052791;28;20035;-73
2023/10/09 06:19:43;;;;;;;28.77;15.98;;;;;;;14.74;100.00;101890.03;5068242;28;20044;-73
2023/10/09 06:22:43;;;;;;;23.58;14.25;;;;;;;14.74;100.00;101898.91;5049324;28;20090;-71
2023/10/09 06:24:57;;;;;;;23.10;13.98;;;;;;;14.76;100.00;101896.88;5049212;28;20983;-71
2023/10/09 06:30:24;;;;;;;24.98;14.57;;;;;;;14.80;100.00;101891.91;5048418;28;20123;-71
2023/10/09 06:33:04;;;;;;;27.52;15.52;;;;;;;14.79;100.00;101901.84;5048269;28;20479;-71
2023/10/09 06:35:35;;;;;;;26.58;16.02;;;;;;;14.75;100.00;101905.09;5048457;28;20652;-73
2023/10/09 06:45:54;;;;;;;27.75;14.00;;;;;;;14.85;100.00;101901.03;5048933;28;20109;-74
2023/10/09 06:51:07;;;;;;;25.63;14.32;;;;;;;14.84;100.00;101887.81;5049542;28;20036;-74
2023/10/09 06:59:24;;;;;;;22.42;13.65;;;;;;;14.88;100.00;101872.94;5040888;28;20059;-74
2023/10/09 07:07:09;;;;;;;22.95;13.70;;;;;;;14.88;100.00;101887.22;5053204;28;20048;-74
2023/10/09 07:10:28;;;;;;;24.17;14.20;;;;;;;14.97;100.00;101887.06;5052717;28;20025;-74
2023/10/09 07:12:32;;;;;;;27.80;16.45;;;;;;;14.97;100.00;101873.63;5052515;28;20037;-74
2023/10/09 07:15:01;;;;;;;26.30;15.40;;;;;;;15.01;100.00;101866.78;5052497;28;20590;-74
2023/10/09 07:20:09;;;;;;;;;;;;;;;15.10;100.00;101836.88;5053042;28;20112;-76
2023/10/09 07:22:39;;;;;;;26.90;16.25;;;;;;;15.09;100.00;101858.56;5038552;28;19924;-74
2023/10/09 07:25:15;;;;;;;32.05;16.92;;;;;;;15.11;100.00;101880.69;5049586;28;20155;-73
2023/10/09 07:27:44;;;;;;;26.95;15.82;;;;;;;15.07;100.00;101893.72;5047727;28;20136;-74
2023/10/09 07:33:06;;;;;;;25.35;15.15;;;;;;;15.21;100.00;101901.81;5058424;28;20033;-71
2023/10/09 07:38:19;;;;;;;25.23;15.30;;;;;;;15.25;100.00;101928.09;5061782;28;20905;-70
2023/10/09 07:43:38;;;;;;;26.25;15.77;;;;;;;15.21;100.00;101940.25;5065895;28;20081;-74
2023/10/09 07:48:54;;;;;;;32.80;18.60;;;;;;;15.26;100.00;101940.50;5059698;28;20101;-76
2023/10/09 07:51:30;;;;;;;25.35;14.32;;;;;;;15.27;100.00;101960.97;5055142;28;20136;-73
2023/10/09 07:54:09;;;;;;;26.02;16.20;;;;;;;15.26;100.00;101953.09;5049481;28;20049;-70
2023/10/09 07:56:39;;;;;;;26.50;15.63;;;;;;;15.27;100.00;101928.72;5058104;28;20045;-74
2023/10/09 07:59:10;;;;;;;32.85;18.58;;;;;;;15.28;100.00;101903.50;5057911;28;20483;-74
2023/10/09 08:01:52;;;;;;;35.28;16.67;;;;;;;15.26;100.00;101905.53;5051065;28;20463;-74
2023/10/09 08:04:37;;;;;;;37.60;17.13;;;;;;;15.32;100.00;101893.16;5051258;28;20503;-74
2023/10/09 08:07:19;;;;;;;30.63;17.92;;;;;;;15.32;100.00;101918.16;5060677;28;20039;-73
2023/10/09 08:09:47;;;;;;;27.23;14.18;;;;;;;15.34;100.00;101905.38;5070669;28;20521;-73
2023/10/09 08:15:20;;;;;;;26.10;15.55;;;;;;;15.40;100.00;101927.91;5070749;28;20066;-73
2023/10/09 08:17:50;;;;;;;26.13;15.95;;;;;;;15.48;100.00;101917.00;5054857;28;20127;-73
2023/10/09 08:20:17;;;;;;;28.97;15.43;;;;;;;15.50;100.00;101922.97;5070390;28;20052;-74
2023/10/09 08:22:43;;;;;;;27.83;17.05;;;;;;;15.53;100.00;101893.00;5070477;28;20031;-73
2023/10/09 08:35:51;;;;;;;31.25;17.27;;;;;;;15.77;100.00;101872.81;5033634;28;20037;-73
2023/10/09 08:38:23;;;;;;;32.50;14.82;;;;;;;15.85;100.00;101873.63;5051019;28;20037;-73
2023/10/09 08:40:50;;;;;;;26.90;16.58;;;;;;;15.90;100.00;101879.22;5033946;28;20025;-74
2023/10/09 08:43:16;;;;;;;28.17;14.20;;;;;;;15.93;100.00;101873.44;5040862;28;20024;-73
2023/10/09 08:45:53;;;;;;;29.92;14.98;;;;;;;15.98;100.00;101885.22;5069778;28;20035;-73
2023/10/09 08:48:22;;;;;;;28.83;16.85;;;;;;;16.02;100.00;101882.13;5050055;28;20390;-74
2023/10/09 08:50:49;;;;;;;26.60;14.32;;;;;;;16.09;100.00;101886.47;5050704;28;20041;-73
2023/10/09 08:53:16;;;;;;;24.55;16.20;;;;;;;16.12;100.00;101888.75;5032728;28;20416;-74
2023/10/09 08:55:43;;;;;;;27.10;16.00;;;;;;;16.21;100.00;101902.81;5050511;28;20044;-74
2023/10/09 08:58:30;;;;;;;27.38;14.48;;;;;;;16.27;100.00;101922.66;5050424;28;20032;-73
2023/10/09 09:00:58;;;;;;;25.77;15.60;;;;;;;16.36;100.00;101938.41;5051064;28;20476;-73
2023/10/09 09:03:24;;;;;;;27.75;14.90;;;;;;;16.41;100.00;101940.50;5050483;28;20087;-73
2023/10/09 09:06:04;;;;;;;27.02;16.75;;;;;;;16.48;100.00;101957.47;5050274;28;20021;-73
2023/10/09 09:08:32;;;;;;;24.52;14.02;;;;;;;16.56;100.00;101959.13;5050439;28;20066;-73
2023/10/09 09:11:22;;;;;;;29.63;16.33;;;;;;;16.62;100.00;101958.28;5069273;28;20040;-73
2023/10/09 09:14:07;;;;;;;30.77;17.20;;;;;;;16.74;100.00;101944.97;5068047;28;20036;-73
2023/10/09 09:16:35;;;;;;;25.83;15.85;;;;;;;16.83;100.00;101954.53;5050236;28;20032;-73
2023/10/09 09:19:17;;;;;;;24.27;15.68;;;;;;;16.89;100.00;101953.69;5057857;28;20040;-73
2023/10/09 09:21:54;;;;;;;23.73;15.88;;;;;;;16.99;100.00;101954.06;5049639;28;20534;-73
2023/10/09 09:26:59;;;;;;;24.65;16.95;;;;;;;17.12;100.00;101958.59;5049681;28;20110;-73
2023/10/09 09:29:37;;;;;;;25.40;15.55;;;;;;;17.14;100.00;101942.22;5049801;28;20391;-73
2023/10/09 09:32:35;;;;;;;26.08;15.43;;;;;;;17.24;100.00;101961.47;5063405;28;20410;-73
2023/10/09 09:35:04;;;;;;;24.98;15.25;;;;;;;17.22;100.00;101969.75;5054614;28;20148;-72
2023/10/09 09:37:54;;;;;;;27.95;15.60;;;;;;;17.23;100.00;101970.56;5043406;28;20032;-72
2023/10/09 09:40:30;;;;;;;27.73;15.77;;;;;;;17.28;100.00;101968.06;5044906;28;20506;-73
2023/10/09 09:43:10;;;;;;;23.35;13.43;;;;;;;17.33;100.00;101978.22;5046345;28;20040;-72
2023/10/09 09:45:37;;;;;;;23.77;15.85;;;;;;;17.37;100.00;101982.97;5059771;28;20884;-73
2023/10/09 09:48:06;;;;;;;24.60;16.15;;;;;;;17.45;100.00;101979.22;5047445;28;20117;-75
2023/10/09 09:50:43;;;;;;;29.17;17.05;;;;;;;17.48;100.00;101973.38;5057457;28;20644;-75
2023/10/09 09:53:11;;;;;;;26.55;16.30;;;;;;;17.52;100.00;101966.50;5049959;28;20032;-75
2023/10/09 09:55:41;;;;;;;27.90;17.67;;;;;;;17.53;100.00;101966.28;5046089;28;20049;-75
2023/10/09 09:58:18;;;;;;;25.55;16.20;;;;;;;17.59;100.00;101975.41;5054001;28;20190;-72
2023/10/09 10:00:45;;;;;;;27.77;16.60;;;;;;;17.62;100.00;101971.44;5058714;28;20032;-72
2023/10/09 10:03:26;;;;;;;26.70;17.80;;;;;;;17.66;100.00;101976.19;5038712;28;20063;-70
2023/10/09 10:05:52;;;;;;;24.35;17.95;;;;;;;17.68;100.00;101970.56;5057193;28;20383;-72
2023/10/09 10:08:20;;;;;;;28.77;15.95;;;;;;;17.68;100.00;101962.47;5058860;28;20044;-72
2023/10/09 10:11:04;;;;;;;32.35;17.75;;;;;;;17.80;100.00;101981.53;5065286;28;20117;-76
2023/10/09 10:13:42;;;;;;;25.08;16.15;;;;;;;17.84;100.00;101980.91;5067073;28;20051;-74
2023/10/09 10:16:20;;;;;;;25.70;16.08;;;;;;;17.88;100.00;101981.28;5068502;28;20438;-74
2023/10/09 10:19:21;;;;;;;27.83;16.83;;;;;;;17.94;100.00;101978.50;5052595;28;20111;-74
2023/10/09 10:21:52;;;;;;;24.63;14.20;;;;;;;17.99;100.00;101977.06;5059777;28;20044;-74
2023/10/09 10:24:51;;;;;;;25.85;16.33;;;;;;;18.01;100.00;101978.47;5068442;28;20448;-73
2023/10/09 10:27:29;;;;;;;32.15;16.10;;;;;;;18.07;100.00;101979.47;5068359;28;20062;-74
2023/10/09 10:30:23;;;;;;;27.08;15.13;;;;;;;18.11;100.00;101980.72;5068977;28;20067;-74
2023/10/09 10:32:52;;;;;;;30.33;17.08;;;;;;;18.11;100.00;101986.94;5072344;28;20056;-74
2023/10/09 10:35:32;;;;;;;26.58;16.45;;;;;;;18.13;100.00;101968.66;5072546;28;20054;-74
2023/10/09 10:38:11;;;;;;;26.35;16.10;;;;;;;18.17;100.00;101969.03;5072496;28;20028;-74
2023/10/09 10:40:46;;;;;;;26.52;15.05;;;;;;;18.24;100.00;101972.50;5072631;28;20032;-74
2023/10/09 10:46:05;;;;;;;30.38;17.05;;;;;;;18.38;100.00;101968.63;5052786;28;20040;-74
2023/10/09 10:48:37;;;;;;;;;;;;;;;18.46;100.00;101970.22;5053667;28;20098;-74
2023/10/09 10:51:04;;;;;;;25.52;15.25;;;;;;;18.43;100.00;101973.38;5035031;28;19913;-74
2023/10/09 10:53:34;;;;;;;30.27;17.80;;;;;;;18.44;100.00;101974.19;5052777;28;20041;-74
2023/10/09 10:58:38;;;;;;;26.50;14.57;;;;;;;18.51;100.00;101970.38;5053187;28;20472;-74
2023/10/09 11:01:15;;;;;;;23.20;14.90;;;;;;;18.53;100.00;101975.59;5052741;28;20036;-74
2023/10/09 11:03:56;;;;;;;27.15;15.25;;;;;;;18.55;100.00;101974.31;5052874;28;20033;-74
2023/10/09 11:06:41;;;;;;;27.75;15.75;;;;;;;18.64;100.00;101974.03;5052637;28;20033;-74
2023/10/09 11:09:20;;;;;;;28.95;16.25;;;;;;;18.69;100.00;101985.00;5063050;28;20068;-74
2023/10/09 11:11:47;;;;;;;26.77;17.63;;;;;;;18.79;100.00;101985.34;5053737;28;20036;-74
2023/10/09 11:14:17;;;;;;;25.45;15.27;;;;;;;18.88;100.00;101978.56;5071829;28;20031;-74
2023/10/09 11:16:47;;;;;;;24.83;16.33;;;;;;;18.96;100.00;101977.44;5071505;28;20036;-74
2023/10/09 11:21:58;;;;;;;23.60;13.48;;;;;;;19.14;100.00;101971.22;5072095;28;20046;-74
2023/10/09 11:24:33;;;;;;;24.40;14.65;;;;;;;19.22;100.00;101965.50;5071637;28;20391;-74
2023/10/09 11:27:05;;;;;;;20.70;12.40;;;;;;;19.26;100.00;101964.81;5071601;28;20079;-73
2023/10/09 11:32:22;;;;;;;22.92;12.85;;;;;;;19.43;100.00;101969.59;5071577;28;20624;-74
2023/10/09 11:35:08;;;;;;;23.52;12.25;;;;;;;19.48;100.00;101972.44;5071485;28;20028;-73
2023/10/09 11:37:42;;;;;;;20.88;10.32;;;;;;;19.62;100.00;101978.50;5056132;28;20028;-74
2023/10/09 11:40:30;;;;;;;22.65;10.80;;;;;;;19.69;100.00;101971.97;5071428;28;20466;-74
2023/10/09 11:42:59;;;;;;;24.38;10.80;;;;;;;19.73;100.00;101969.66;5070946;28;20028;-73
2023/10/09 11:45:37;;;;;;;20.33;11.35;;;;;;;19.74;100.00;101967.75;5071066;28;20119;-73
2023/10/09 11:48:21;;;;;;;19.00;10.98;;;;;;;19.74;100.00;101968.59;5071173;28;20641;-74
2023/10/09 11:50:51;;;;;;;21.30;11.07;;;;;;;19.70;100.00;101965.53;5070921;28;20185;-73
2023/10/09 11:53:33;;;;;;;19.90;10.93;;;;;;;19.64;100.00;101968.28;5070840;28;20048;-73
2023/10/09 11:55:59;;;;;;;19.55;9.88;;;;;;;19.59;100.00;101963.53;5071295;28;20028;-74
2023/10/09 11:58:25;;;;;;;22.35;11.27;;;;;;;19.58;100.00;101971.91;5071003;28;20024;-74
2023/10/09 12:00:56;;;;;;;20.15;9.60;;;;;;;19.57;100.00;101973.81;5052843;28;20185;-74
2023/10/09 12:03:23;;;;;;;20.65;10.13;;;;;;;19.54;100.00;101958.00;5070856;28;20024;-74
2023/10/09 12:05:49;;;;;;;22.20;11.35;;;;;;;19.61;100.00;101980.38;5070659;28;20614;-74
2023/10/09 12:08:16;;;;;;;21.50;8.75;;;;;;;19.59;100.00;101971.66;5052719;28;20036;-74
2023/10/09 12:10:42;;;;;;;23.30;11.57;;;;;;;19.61;100.00;101976.84;5070824;28;20965;-74
2023/10/09 12:13:07;;;;;;;19.02;9.88;;;;;;;19.59;100.00;101971.66;5070746;28;20032;-74
2023/10/09 12:15:39;;;;;;;19.13;9.85;;;;;;;19.59;100.00;101968.13;5070820;28;20033;-74
2023/10/09 12:18:08;;;;;;;;;;;;;;;19.63;100.00;101966.63;5071238;28;20063;-74
2023/10/09 12:20:34;;;;;;;19.08;8.57;;;;;;;19.55;100.00;101962.38;5070468;28;20026;-73
2023/10/09 12:23:04;;;;;;;19.23;8.80;;;;;;;19.53;100.00;101964.47;5070532;28;20468;-74
2023/10/09 12:25:31;;;;;;;16.65;8.35;;;;;;;19.58;100.00;101956.50;5052919;28;20111;-74
2023/10/09 12:27:57;;;;;;;17.33;7.65;;;;;;;19.58;100.00;101959.19;5070576;28;20032;-74
2023/10/09 12:30:29;;;;;;;14.20;7.10;;;;;;;19.57;100.00;101943.19;5052450;28;20037;-74
2023/10/09 12:32:57;;;;;;;;;;;;;;;19.73;100.00;101947.16;5070763;28;20528;-74
2023/10/09 12:35:24;;;;;;;21.10;8.15;;;;;;;19.74;100.00;101954.22;5070137;28;19923;-73
2023/10/09 12:37:50;;;;;;;17.73;7.85;;;;;;;19.73;100.00;101947.16;5069793;28;20024;-74
2023/10/09 12:40:23;;;;;;;24.55;7.90;;;;;;;19.72;100.00;101938.22;5069566;28;20468;-74
2023/10/09 12:42:52;;;;;;;18.05;8.80;;;;;;;19.79;100.00;101944.34;5056304;28;20031;-73
2023/10/09 12:45:25;;;;;;;14.77;7.88;;;;;;;19.81;100.00;101944.94;5050640;28;20036;-73
2023/10/09 12:47:51;;;;;;;15.70;7.30;;;;;;;19.83;100.00;101923.91;5050822;28;20025;-73
2023/10/09 12:50:16;;;;;;;15.30;7.55;;;;;;;19.90;100.00;101931.91;5050801;28;20036;-73
2023/10/09 12:52:42;;;;;;;14.35;7.97;;;;;;;19.90;100.00;101923.78;5049598;28;20472;-73
2023/10/09 12:55:09;;;;;;;17.23;8.32;;;;;;;19.88;100.00;101912.34;5050691;28;20499;-73
2023/10/09 12:57:36;;;;;;;15.82;8.18;;;;;;;19.86;100.00;101919.91;5050711;28;20110;-74
2023/10/09 13:00:10;;;;;;;18.38;8.88;;;;;;;19.93;100.00;101916.00;5049981;28;20060;-72
2023/10/09 13:02:36;;;;;;;17.95;8.75;;;;;;;19.92;100.00;101898.13;5047266;28;20683;-72
2023/10/09 13:05:05;;;;;;;22.55;8.57;;;;;;;20.08;100.00;101915.56;5048709;28;20037;-71
2023/10/09 13:07:31;;;;;;;16.95;8.95;;;;;;;20.08;100.00;101912.03;5050492;28;20036;-71
2023/10/09 13:10:08;;;;;;;14.85;8.07;;;;;;;20.10;100.00;101909.91;5058737;28;20028;-72
2023/10/09 13:12:38;;;;;;;15.50;7.72;;;;;;;20.23;100.00;101914.28;5059304;28;20086;-72
2023/10/09 13:15:08;;;;;;;23.27;9.65;;;;;;;20.23;100.00;101917.00;5047552;28;20442;-71
2023/10/09 13:17:34;;;;;;;17.40;6.75;;;;;;;20.21;100.00;101910.97;5051699;28;20039;-71
2023/10/09 13:19:59;;;;;;;19.27;9.07;;;;;;;20.19;100.00;101916.63;5067569;28;20024;-73
2023/10/09 13:22:25;;;;;;;11.77;6.57;;;;;;;20.28;100.00;101925.25;5065608;28;20038;-72
2023/10/09 13:24:52;;;;;;;15.77;6.60;;;;;;;20.26;100.00;101930.06;5058622;28;20043;-74
2023/10/09 13:27:21;;;;;;;14.82;8.20;;;;;;;20.18;100.00;101917.69;5068968;28;20032;-74
2023/10/09 13:29:47;;;;;;;13.90;6.53;;;;;;;20.13;100.00;101920.28;5068923;28;20060;-74
2023/10/09 13:32:16;;;;;;;16.00;6.93;;;;;;;20.07;100.00;101932.06;5068842;28;20025;-74
2023/10/09 13:34:44;;;;;;;12.35;5.82;;;;;;;20.08;100.00;101941.81;5069047;28;20146;-74
2023/10/09 13:37:13;;;;;;;17.42;6.00;;;;;;;20.04;100.00;101932.50;5068758;28;20044;-74
2023/10/09 13:39:40;;;;;;;14.40;7.60;;;;;;;20.04;100.00;101936.06;5051220;28;20583;-74
2023/10/09 13:42:07;;;;;;;15.50;6.75;;;;;;;19.97;100.00;101932.63;5069022;28;20072;-74
2023/10/09 13:44:33;;;;;;;12.45;6.63;;;;;;;20.02;100.00;101932.75;5068416;28;20037;-74
2023/10/09 13:47:01;;;;;;;13.32;6.22;;;;;;;20.10;100.00;101939.72;5055776;28;20041;-73
2023/10/09 13:49:29;;;;;;;17.25;6.07;;;;;;;20.10;100.00;101929.69;5049661;28;20468;-73
2023/10/09 13:51:56;;;;;;;12.32;6.40;;;;;;;20.24;100.00;101943.00;5049475;28;20029;-73